Buffalo, WY (82834)

1:07 PM MDT on August 30, 2016 (GMT -0600)
Buffalo | | Change Station
Active Advisory: Fire Weather Warning

Elev 4708 ft 44.34 °N, 106.70 °W | Updated 0 second ago

Clear
Clear
86.9 °F
Feels Like 83 °F
N
19.2
Wind Variable Wind from SSE
Gusts 22.4 mph

Today
High -- | Low -- °F
--% Chance of Precip.
Yesterday
High -- | Low -- °F
Precip. -- in
Pressure 30.02 in
Visibility 10.0 miles
Clouds Clear
Heat Index 83 °F
Dew Point 24 °F
Humidity 10%
Rainfall 0.00 in
Snow Depth Not available.
6:28 AM 7:45 PM
Waning Crescent, 3% visible
METAR KBYG 301853Z AUTO 17019G27KT 10SM CLR 32/00 A3022 RMK AO2 PK WND 15031/1804 SLP166 T03220000
Pressure 30.02 in
Visibility 10.0 miles
Clouds Clear
Heat Index 83 °F
Dew Point 24 °F
Humidity 10%
Rainfall 0.00 in
Snow Depth Not available.
6:28 AM 7:45 PM
Waning Crescent, 3% visible
METAR KBYG 301853Z AUTO 17019G27KT 10SM CLR 32/00 A3022 RMK AO2 PK WND 15031/1804 SLP166 T03220000

10-Day Weather Forecast

Almanac

Astronomy

Aug. 30, 2016 Rise Set
Actual Time
Civil Twilight
Nautical Twilight
Astronomical Twilight
Moon
Length of Visible Light
Length of Day
Tomorrow will be .
, % of the Moon is Illuminated

Today's Extremes

State Highs State Lows

Community

WunderPhotos

Upload Photos

1,935,879 photos uploaded!

WunderBlog® & News

Nearby

Air Quality

  Air Quality AQ Index Pollutant
Not available.

Snow Depth

Station Depth Elevation

Earthquake Activity

City Distance Mag. Time & Date
Minimum magnitude displayed is 2.5.

Coastal Water Temperatures

Place Temperature

Stations

Nearby Weather Stations

Station Location Temp. Windchill Dew Point Humidity Wind Precip. Elev Updated Type
                   

Watches & Warnings

Fire Weather Warning
Issued: 12:06 PM MDT Aug. 30, 2016 – National Weather Service

... Red flag warning remains in effect until 8 PM MDT this evening
for gusty winds... low relative humidity... and critically dry
fuels...

* affected area... fire weather zone 281... especially the
northern portion of this zone.

* Wind... south winds 10 to 20 mph with gusts of 25 to 30 mph.

* Humidity... 10 to 15 percent.

* Impacts... any fires that develop will likely spread rapidly.
Outdoor burning is not recommended.

Precautionary/preparedness actions...

A red flag warning means that critical fire weather conditions
are either occurring now... .or will shortly. A combination of
strong winds... low relative humidity... and warm temperatures can
contribute to extreme fire behavior.